Time;durP1;ratioP1;P1;durP2;ratioP2;P2;SDS_P1;SDS_P2;PMS_P1;PMS_P2;Temp;Humidity;BMP_temperature;BMP_pressure;BME280_temperature;BME280_humidity;BME280_pressure;Samples;Min_cycle;Max_cycle;Signal;HPM_P1;HPM_P2
2021/10/18 00:01:20;;;;;;;7.83;7.10;;;8.10;99.90;;;;;;4863249;29;20179;-90
2021/10/18 00:03:45;;;;;;;8.60;7.57;;;8.20;99.90;;;;;;4878661;29;20228;-90
2021/10/18 00:06:11;;;;;;;8.30;7.60;;;8.20;99.90;;;;;;4879578;29;20221;-90
2021/10/18 00:08:37;;;;;;;7.93;7.30;;;8.20;99.90;;;;;;4878409;29;20581;-90
2021/10/18 00:11:03;;;;;;;8.87;8.07;;;8.20;99.90;;;;;;4879965;29;20570;-90
2021/10/18 00:13:29;;;;;;;7.57;7.15;;;8.10;99.90;;;;;;4880136;29;20177;-91
2021/10/18 00:15:54;;;;;;;8.53;7.87;;;8.10;99.90;;;;;;4879761;29;20184;-90
2021/10/18 00:18:20;;;;;;;7.77;7.17;;;8.10;99.90;;;;;;4880104;29;20619;-91
2021/10/18 00:20:46;;;;;;;8.63;8.03;;;8.00;99.90;;;;;;4862854;29;20233;-89
2021/10/18 00:23:11;;;;;;;8.10;7.60;;;8.00;99.90;;;;;;4879710;29;20226;-89
2021/10/18 00:25:37;;;;;;;7.77;7.27;;;7.90;99.90;;;;;;4879857;29;20170;-88
2021/10/18 00:28:03;;;;;;;8.80;8.20;;;7.80;99.90;;;;;;4880471;29;20300;-89
2021/10/18 00:30:29;;;;;;;9.67;8.87;;;7.80;99.90;;;;;;4863635;29;20536;-89
2021/10/18 00:32:54;;;;;;;9.37;8.50;;;7.80;99.90;;;;;;4879761;29;20418;-89
2021/10/18 00:35:20;;;;;;;8.43;7.63;;;7.90;99.90;;;;;;4880366;29;20625;-89
2021/10/18 00:37:46;;;;;;;8.50;7.43;;;7.90;99.90;;;;;;4882855;29;20209;-89
2021/10/18 00:40:13;;;;;;;8.13;7.40;;;7.80;99.90;;;;;;4881239;29;20256;-89
2021/10/18 00:42:39;;;;;;;8.00;7.50;;;7.70;99.90;;;;;;4881354;29;20181;-89
2021/10/18 00:45:06;;;;;;;8.43;7.70;;;7.80;99.90;;;;;;4880270;29;20417;-89
2021/10/18 00:47:32;;;;;;;8.97;8.17;;;7.80;99.90;;;;;;4862538;29;20933;-90
2021/10/18 00:49:58;;;;;;;8.27;7.57;;;8.20;99.90;;;;;;4879520;29;20489;-90
2021/10/18 00:52:24;;;;;;;8.53;7.80;;;7.70;99.90;;;;;;4878103;29;20458;-90
2021/10/18 00:54:52;;;;;;;10.82;8.73;;;7.20;99.90;;;;;;4879309;29;20284;-90
2021/10/18 00:57:18;;;;;;;7.77;7.10;;;7.60;99.90;;;;;;4877924;29;20548;-90
2021/10/18 00:59:44;;;;;;;8.23;7.53;;;7.60;99.90;;;;;;4879122;29;20533;-90
2021/10/18 01:02:10;;;;;;;8.32;7.53;;;7.10;99.90;;;;;;4879027;29;20478;-90
2021/10/18 01:04:36;;;;;;;9.20;8.40;;;7.50;99.90;;;;;;4879096;29;20182;-90
2021/10/18 01:07:02;;;;;;;11.80;7.70;;;7.50;99.90;;;;;;4862789;29;20993;-90
2021/10/18 01:09:27;;;;;;;8.40;7.80;;;7.60;99.90;;;;;;4879070;29;20417;-90
2021/10/18 01:11:53;;;;;;;9.10;8.30;;;9.10;99.90;;;;;;4879265;29;20652;-91
2021/10/18 01:14:19;;;;;;;8.70;8.00;;;7.40;99.90;;;;;;4877891;29;20181;-90
2021/10/18 01:16:45;;;;;;;9.63;8.93;;;7.50;99.90;;;;;;4862252;29;20597;-90
2021/10/18 01:19:18;;;;;;;9.10;8.30;;;7.20;99.90;;;;;;4879046;29;20653;-90
2021/10/18 01:21:45;;;;;;;9.45;8.70;;;7.40;99.90;;;;;;4878956;29;20265;-89
2021/10/18 01:24:11;;;;;;;8.60;8.00;;;7.40;99.90;;;;;;4878910;29;20189;-90
2021/10/18 01:26:37;;;;;;;9.30;8.25;;;7.40;99.90;;;;;;4879089;29;20414;-90
2021/10/18 01:29:03;;;;;;;10.03;8.80;;;7.40;99.90;;;;;;4882456;29;20217;-90
2021/10/18 01:31:29;;;;;;;9.07;8.33;;;7.30;99.90;;;;;;4882470;29;20485;-90
2021/10/18 01:33:55;;;;;;;9.40;8.50;;;7.30;99.90;;;;;;4865802;29;20871;-90
2021/10/18 01:36:21;;;;;;;9.30;8.60;;;7.20;99.90;;;;;;4865582;29;20173;-90
2021/10/18 01:38:46;;;;;;;8.50;7.80;;;7.30;99.90;;;;;;4882206;29;20469;-90
2021/10/18 01:41:13;;;;;;;9.13;8.43;;;7.20;99.90;;;;;;4882527;29;20261;-90
2021/10/18 01:43:38;;;;;;;9.73;8.73;;;7.20;99.90;;;;;;4887316;29;20421;-90
2021/10/18 01:46:04;;;;;;;10.07;8.90;;;7.20;99.90;;;;;;4878470;29;20445;-90
2021/10/18 01:48:30;;;;;;;10.50;9.57;;;6.80;99.90;;;;;;4906248;29;20193;-90
2021/10/18 01:50:56;;;;;;;12.77;10.20;;;;;;;;;;4885564;29;20185;-90
2021/10/18 01:53:22;;;;;;;14.07;10.20;;;7.20;99.90;;;;;;4882540;29;20486;-90
2021/10/18 01:55:48;;;;;;;11.07;10.10;;;9.00;99.90;;;;;;4882681;29;20442;-90
2021/10/18 01:58:13;;;;;;;12.70;11.60;;;6.50;99.90;;;;;;4866244;29;20201;-90
2021/10/18 02:00:40;;;;;;;15.33;12.57;;;6.90;99.90;;;;;;4882605;29;20445;-90
2021/10/18 02:03:06;;;;;;;13.20;11.48;;;6.90;99.90;;;;;;4882209;29;20260;-90
2021/10/18 02:05:31;;;;;;;11.03;10.03;;;6.90;99.90;;;;;;4882011;29;20209;-91
2021/10/18 02:07:57;;;;;;;13.53;11.23;;;6.90;99.90;;;;;;4880934;29;20188;-90
2021/10/18 02:10:23;;;;;;;12.20;10.90;;;6.90;99.90;;;;;;4881792;29;20174;-90
2021/10/18 02:12:48;;;;;;;10.97;9.87;;;7.00;99.90;;;;;;4865294;29;20189;-90
2021/10/18 02:15:14;;;;;;;9.80;9.03;;;7.00;99.90;;;;;;4865115;29;20177;-89
2021/10/18 02:17:40;;;;;;;9.10;8.50;;;7.10;99.90;;;;;;4881542;29;20553;-90
2021/10/18 02:20:08;;;;;;;13.43;8.13;;;7.00;99.90;;;;;;4881665;29;20173;-90
2021/10/18 02:22:35;;;;;;;9.13;8.37;;;7.00;99.90;;;;;;4864971;29;20417;-91
2021/10/18 02:25:01;;;;;;;8.30;7.60;;;6.90;99.90;;;;;;4865493;29;20438;-91
2021/10/18 02:27:26;;;;;;;9.27;8.50;;;7.00;99.90;;;;;;4865606;29;20470;-91
2021/10/18 02:29:52;;;;;;;8.60;8.00;;;7.10;99.90;;;;;;4881561;29;20469;-90
2021/10/18 02:32:18;;;;;;;8.47;7.77;;;7.10;99.90;;;;;;4880475;29;20587;-88
2021/10/18 02:34:44;;;;;;;8.60;7.90;;;7.00;99.90;;;;;;4881896;29;20509;-91
2021/10/18 02:37:09;;;;;;;9.37;8.63;;;7.00;99.90;;;;;;4881972;29;20185;-89
2021/10/18 02:39:35;;;;;;;8.87;8.10;;;6.90;99.90;;;;;;4881287;29;20281;-89
2021/10/18 02:42:00;;;;;;;7.60;7.20;;;7.00;99.90;;;;;;4880830;29;20205;-90
2021/10/18 02:44:26;;;;;;;9.07;8.27;;;6.90;99.90;;;;;;4864925;29;20181;-90
2021/10/18 02:46:52;;;;;;;10.50;8.33;;;6.90;99.90;;;;;;4881637;29;20174;-89
2021/10/18 02:49:17;;;;;;;8.83;8.10;;;6.90;99.90;;;;;;4881669;29;20187;-89
2021/10/18 02:51:43;;;;;;;8.93;8.00;;;6.90;99.90;;;;;;4881684;29;20201;-89
2021/10/18 02:54:10;;;;;;;9.30;8.60;;;6.90;99.90;;;;;;4880578;29;20527;-89
2021/10/18 02:56:35;;;;;;;10.83;9.10;;;7.00;99.90;;;;;;4864672;29;20197;-89
2021/10/18 02:59:01;;;;;;;9.40;8.67;;;7.00;99.90;;;;;;4880771;29;20477;-89
2021/10/18 03:01:26;;;;;;;8.57;7.80;;;7.00;99.90;;;;;;4881294;29;20178;-90
2021/10/18 03:03:52;;;;;;;9.50;8.80;;;7.20;99.90;;;;;;4881422;29;20189;-89
2021/10/18 03:06:17;;;;;;;8.50;7.90;;;7.20;99.90;;;;;;4864786;29;20193;-89
2021/10/18 03:08:43;;;;;;;9.47;8.87;;;7.20;99.90;;;;;;4882003;29;20177;-89
2021/10/18 03:11:08;;;;;;;12.80;8.13;;;7.80;99.90;;;;;;4881587;29;20173;-89
2021/10/18 03:13:34;;;;;;;8.67;7.87;;;;;;;;;;4881476;29;20181;-90
2021/10/18 03:16:00;;;;;;;10.17;9.27;;;;;;;;;;4881364;29;20184;-89
2021/10/18 03:18:26;;;;;;;8.93;7.73;;;7.40;99.90;;;;;;4881279;29;20473;-89
2021/10/18 03:20:52;;;;;;;9.30;7.80;;;6.60;99.90;;;;;;4881158;29;20417;-89
2021/10/18 03:23:18;;;;;;;8.47;7.80;;;7.00;99.90;;;;;;4865201;29;20182;-90
2021/10/18 03:25:44;;;;;;;8.60;7.93;;;;;;;;;;4881378;29;20165;-90
2021/10/18 03:28:10;;;;;;;7.90;7.40;;;7.40;99.90;;;;;;4881281;29;20469;-89
2021/10/18 03:30:35;;;;;;;8.90;8.20;;;10.00;99.90;;;;;;4882928;29;20489;-89
2021/10/18 03:33:01;;;;;;;8.90;8.20;;;7.10;99.90;;;;;;4882094;29;20173;-90
2021/10/18 03:35:26;;;;;;;8.47;7.47;;;6.90;99.90;;;;;;4881798;29;20260;-90
2021/10/18 03:37:52;;;;;;;9.93;8.97;;;6.50;99.90;;;;;;4880691;29;20200;-90
2021/10/18 03:40:18;;;;;;;9.93;9.13;;;;;;;;;;4865485;29;20193;-90
2021/10/18 03:42:44;;;;;;;10.70;9.80;;;7.10;99.90;;;;;;4881234;29;20574;-91
2021/10/18 03:45:10;;;;;;;12.70;10.97;;;6.30;99.90;;;;;;4881860;29;20185;-91
2021/10/18 03:47:36;;;;;;;11.50;10.30;;;7.00;99.90;;;;;;4865764;29;20181;-91
2021/10/18 03:50:04;;;;;;;11.13;10.13;;;6.80;99.90;;;;;;4864976;29;20836;-90
2021/10/18 03:52:30;;;;;;;14.73;9.90;;;7.10;99.90;;;;;;4866260;29;20173;-91
2021/10/18 03:54:55;;;;;;;14.73;10.03;;;7.10;99.90;;;;;;4864709;29;20433;-92
2021/10/18 03:57:21;;;;;;;14.23;10.27;;;6.90;99.90;;;;;;4880017;29;20930;-90
2021/10/18 03:59:46;;;;;;;11.17;10.07;;;7.00;99.90;;;;;;4881835;29;20296;-91
2021/10/18 04:02:14;;;;;;;10.87;9.83;;;6.90;99.90;;;;;;4881755;29;20165;-91
2021/10/18 04:04:40;;;;;;;9.83;9.00;;;6.90;99.90;;;;;;4865183;29;20701;-90
2021/10/18 04:07:05;;;;;;;10.70;8.97;;;7.00;99.90;;;;;;4865487;29;20835;-90
2021/10/18 04:09:31;;;;;;;13.43;9.20;;;6.40;99.90;;;;;;4865927;29;20437;-90
2021/10/18 04:11:57;;;;;;;12.00;9.07;;;5.70;99.90;;;;;;4881057;29;20180;-90
2021/10/18 04:14:23;;;;;;;10.17;9.20;;;;;;;;;;4867583;29;20426;-90
2021/10/18 04:16:49;;;;;;;9.30;8.52;;;;;;;;;;4888071;29;20178;-91
2021/10/18 04:19:15;;;;;;;11.13;10.00;;;;;;;;;;4896440;29;20208;-90
2021/10/18 04:21:41;;;;;;;10.10;9.30;;;;;;;;;;4900232;29;20414;-90
2021/10/18 04:24:07;;;;;;;11.37;9.97;;;;;;;;;;4881364;29;20429;-91
2021/10/18 04:26:32;;;;;;;10.40;9.50;;;7.00;99.90;;;;;;4881574;29;20897;-90
2021/10/18 04:28:58;;;;;;;10.63;9.70;;;;;;;;;;4881407;29;20493;-90
2021/10/18 04:31:29;;;;;;;12.43;10.53;;;7.00;99.90;;;;;;4882101;29;20234;-90
2021/10/18 04:33:59;;;;;;;12.40;11.20;;;7.50;99.90;;;;;;4865997;29;20520;-91
2021/10/18 04:36:25;;;;;;;11.00;10.07;;;;;;;;;;4867161;29;20906;-90
2021/10/18 04:38:51;;;;;;;9.80;9.10;;;6.90;99.90;;;;;;4881121;29;20300;-90
2021/10/18 04:41:16;;;;;;;11.43;10.43;;;6.30;99.90;;;;;;4881669;29;20413;-90
2021/10/18 04:43:42;;;;;;;10.50;9.70;;;6.90;99.90;;;;;;4865315;29;20174;-90
2021/10/18 04:46:08;;;;;;;11.40;10.30;;;;;;;;;;4867788;29;20177;-90
2021/10/18 04:48:34;;;;;;;11.67;10.57;;;6.90;99.90;;;;;;4884787;29;20252;-90
2021/10/18 04:51:00;;;;;;;13.23;10.03;;;7.20;99.90;;;;;;4883664;29;20461;-89
2021/10/18 04:53:25;;;;;;;12.57;10.50;;;;;;;;;;4884228;29;20181;-89
2021/10/18 04:55:51;;;;;;;11.40;10.30;;;;;;;;;;4881351;29;20622;-90
2021/10/18 04:58:17;;;;;;;11.50;10.40;;;;;;;;;;4882741;29;20481;-90
2021/10/18 05:00:46;;;;;;;11.50;10.33;;;6.80;99.90;;;;;;4881130;29;20426;-90
2021/10/18 05:03:12;;;;;;;11.98;10.77;;;;;;;;;;4884975;29;20871;-89
2021/10/18 05:05:39;;;;;;;12.07;10.97;;;;;;;;;;4885202;29;20189;-90
2021/10/18 05:08:10;;;;;;;11.60;10.47;;;6.80;99.90;;;;;;4884135;29;20426;-88
2021/10/18 05:10:37;;;;;;;11.77;10.73;;;5.10;99.90;;;;;;4869626;29;20418;-90
2021/10/18 05:13:04;;;;;;;11.70;9.15;;;6.50;99.90;;;;;;4869192;29;20191;-90
2021/10/18 05:15:30;;;;;;;10.80;9.70;;;8.20;99.90;;;;;;4885832;29;20174;-91
2021/10/18 05:17:56;;;;;;;11.60;10.13;;;6.40;99.90;;;;;;4871975;29;20201;-91
2021/10/18 05:20:21;;;;;;;14.20;10.77;;;6.80;99.90;;;;;;4870808;29;20661;-90
2021/10/18 05:22:47;;;;;;;17.13;11.97;;;6.80;99.90;;;;;;4869331;29;20178;-90
2021/10/18 05:25:14;;;;;;;12.43;11.13;;;6.70;99.90;;;;;;4887738;29;20486;-91
2021/10/18 05:27:40;;;;;;;11.70;10.60;;;;;;;;;;4887233;29;20169;-86
2021/10/18 05:30:09;;;;;;;13.10;11.27;;;6.70;99.90;;;;;;4885027;29;20448;-89
2021/10/18 05:32:34;;;;;;;12.33;10.10;;;6.80;99.90;;;;;;4883923;29;20765;-89
2021/10/18 05:35:00;;;;;;;11.50;10.30;;;6.70;99.90;;;;;;4866012;29;20426;-90
2021/10/18 05:37:26;;;;;;;12.53;11.27;;;6.70;99.90;;;;;;4866874;29;20203;-90
2021/10/18 05:39:51;;;;;;;11.47;10.37;;;6.70;99.90;;;;;;4883012;29;20220;-89
2021/10/18 05:42:18;;;;;;;11.20;9.97;;;7.70;99.90;;;;;;4881321;29;20188;-89
2021/10/18 05:44:43;;;;;;;10.80;9.40;;;6.60;99.90;;;;;;4883979;29;20268;-89
2021/10/18 05:47:09;;;;;;;13.03;9.73;;;6.60;99.90;;;;;;4209111;29;10000972;-89
2021/10/18 05:49:35;;;;;;;10.40;9.50;;;6.60;99.90;;;;;;4882695;29;20653;-89
2021/10/18 05:52:02;;;;;;;12.32;11.02;;;6.40;99.90;;;;;;4866756;29;20189;-90
2021/10/18 05:54:28;;;;;;;14.07;9.82;;;;;;;;;;4881381;29;20237;-91
2021/10/18 05:56:53;;;;;;;12.87;10.90;;;6.60;99.90;;;;;;4867847;29;20174;-90
2021/10/18 05:59:19;;;;;;;11.83;10.83;;;6.60;99.90;;;;;;4881959;29;20505;-89
2021/10/18 06:01:45;;;;;;;17.80;10.67;;;6.60;99.90;;;;;;4866089;29;20177;-89
2021/10/18 06:04:11;;;;;;;12.27;11.00;;;6.50;99.90;;;;;;4881482;29;20629;-87
2021/10/18 06:06:36;;;;;;;18.20;12.70;;;6.60;99.90;;;;;;4865286;29;20417;-89
2021/10/18 06:09:06;;;;;;;12.90;11.53;;;6.60;99.90;;;;;;4864150;29;20182;-91
2021/10/18 06:11:32;;;;;;;16.08;13.57;;;6.50;99.90;;;;;;4881447;29;20173;-89
2021/10/18 06:13:58;;;;;;;18.85;11.75;;;;;;;;;;4879044;29;20181;-90
2021/10/18 06:16:27;;;;;;;14.80;12.77;;;6.50;99.90;;;;;;4866418;29;20701;-89
2021/10/18 06:18:52;;;;;;;15.80;14.02;;;6.20;99.90;;;;;;4884915;29;20480;-90
2021/10/18 06:21:18;;;;;;;16.30;12.30;;;;;;;;;;4885384;29;20169;-90
2021/10/18 06:23:44;;;;;;;16.53;11.70;;;;;;;;;;4882976;29;20515;-89
2021/10/18 06:26:10;;;;;;;14.40;12.88;;;6.50;99.90;;;;;;4864864;29;20414;-88
2021/10/18 06:28:38;;;;;;;20.30;13.70;;;6.60;99.90;;;;;;4865168;29;20217;-89
2021/10/18 06:31:04;;;;;;;12.52;11.32;;;6.60;99.90;;;;;;4882319;29;20422;-89
2021/10/18 06:33:30;;;;;;;15.90;12.47;;;;;;;;;;4880393;29;20284;-91
2021/10/18 06:35:55;;;;;;;19.83;14.53;;;6.70;99.90;;;;;;4866101;29;20204;-91
2021/10/18 06:38:22;;;;;;;14.37;12.63;;;6.70;99.90;;;;;;4880989;29;20508;-88
2021/10/18 06:40:49;;;;;;;11.57;10.47;;;6.80;99.90;;;;;;4868727;29;20720;-90
2021/10/18 06:43:17;;;;;;;11.88;10.68;;;6.80;99.90;;;;;;4902628;29;20428;-91
2021/10/18 06:45:43;;;;;;;12.48;11.23;;;;;;;;;;4902321;29;20185;-88
2021/10/18 06:48:09;;;;;;;11.27;10.00;;;6.90;99.90;;;;;;4902423;29;20189;-90
2021/10/18 06:50:36;;;;;;;9.35;8.75;;;7.10;99.90;;;;;;4885142;29;20788;-90
2021/10/18 06:53:03;;;;;;;10.98;10.00;;;7.10;99.90;;;;;;4882023;29;20264;-90
2021/10/18 06:55:29;;;;;;;10.70;9.65;;;;;;;;;;4866082;29;20206;-90
2021/10/18 06:57:57;;;;;;;13.03;9.60;;;7.20;99.90;;;;;;4866720;29;20201;-89
2021/10/18 07:00:23;;;;;;;11.40;9.63;;;;;;;;;;4890316;29;20441;-90
2021/10/18 07:02:49;;;;;;;8.70;8.00;;;7.50;99.90;;;;;;4915743;29;20431;-90
2021/10/18 07:05:15;;;;;;;8.43;7.60;;;;;;;;;;4918672;29;20453;-91
2021/10/18 07:07:41;;;;;;;7.50;7.00;;;8.80;99.90;;;;;;4918321;29;20180;-87
2021/10/18 07:10:07;;;;;;;6.90;6.40;;;8.50;99.90;;;;;;4885727;29;20207;-91
2021/10/18 07:12:35;;;;;;;7.13;6.63;;;8.90;99.90;;;;;;4901117;29;20485;-91
2021/10/18 07:15:02;;;;;;;10.80;8.23;;;9.00;99.90;;;;;;4886329;29;20535;-91
2021/10/18 07:17:29;;;;;;;7.20;6.80;;;9.50;99.90;;;;;;4901968;29;20417;-91
2021/10/18 07:19:56;;;;;;;25.57;7.70;;;11.50;99.90;;;;;;4900282;29;20689;-91
2021/10/18 07:22:28;;;;;;;10.40;8.20;;;9.30;99.90;;;;;;4882065;29;20730;-90
2021/10/18 07:24:54;;;;;;;38.30;9.87;;;;;;;;;;4899258;29;20474;-90
2021/10/18 07:27:23;;;;;;;8.30;7.57;;;9.50;99.90;;;;;;4899184;29;20428;-90
2021/10/18 07:29:49;;;;;;;8.80;8.00;;;9.40;99.90;;;;;;4899727;29;20567;-89
2021/10/18 07:32:17;;;;;;;9.37;8.30;;;9.20;99.90;;;;;;4882533;29;20856;-89
2021/10/18 07:34:45;;;;;;;8.10;7.47;;;9.40;99.90;;;;;;4881207;29;20328;-86
2021/10/18 07:37:11;;;;;;;7.50;6.90;;;8.50;99.90;;;;;;4898564;29;21004;-91
2021/10/18 07:39:37;;;;;;;8.20;7.43;;;9.70;99.90;;;;;;4898860;29;20472;-91
2021/10/18 07:42:04;;;;;;;17.27;7.67;;;9.90;99.90;;;;;;4897985;29;20184;-91
2021/10/18 07:44:30;;;;;;;12.50;9.60;;;10.00;99.90;;;;;;4897569;29;20184;-91
2021/10/18 07:46:59;;;;;;;11.60;8.73;;;10.20;99.90;;;;;;4897783;29;20821;-90
2021/10/18 07:49:28;;;;;;;23.30;8.90;;;10.30;99.90;;;;;;4883671;29;20184;-90
2021/10/18 07:51:56;;;;;;;12.00;8.80;;;10.30;99.90;;;;;;4881531;29;20417;-90
2021/10/18 07:54:24;;;;;;;7.10;6.60;;;10.60;99.90;;;;;;4882244;29;20421;-89
2021/10/18 07:56:50;;;;;;;9.63;7.57;;;10.80;99.90;;;;;;4881831;29;20444;-90
2021/10/18 07:59:16;;;;;;;8.07;7.37;;;11.70;99.90;;;;;;4897176;29;20532;-89
2021/10/18 08:01:42;;;;;;;14.83;8.27;;;;;;;;;;4898436;29;20418;-88
2021/10/18 08:04:08;;;;;;;8.20;7.50;;;11.20;99.90;;;;;;4897766;29;20248;-90
2021/10/18 08:06:34;;;;;;;7.93;7.33;;;;;;;;;;4897992;29;20508;-89
2021/10/18 08:09:00;;;;;;;7.73;6.93;;;11.50;99.90;;;;;;4897335;29;20189;-92
2021/10/18 08:11:26;;;;;;;7.83;7.30;;;13.90;99.90;;;;;;4896497;29;20528;-91
2021/10/18 08:13:51;;;;;;;11.33;7.60;;;12.40;99.90;;;;;;4898028;29;20527;-90
2021/10/18 08:16:17;;;;;;;7.90;7.20;;;;;;;;;;4897829;29;20173;-91
2021/10/18 08:18:43;;;;;;;8.30;7.43;;;12.50;98.30;;;;;;4897010;29;20581;-91
2021/10/18 08:21:10;;;;;;;8.50;7.03;;;12.90;97.20;;;;;;4896384;29;20433;-89
2021/10/18 08:23:36;;;;;;;9.73;8.10;;;12.90;97.50;;;;;;4896703;29;20244;-89
2021/10/18 08:26:12;;;;;;;7.63;7.10;;;13.50;96.70;;;;;;4898832;29;20413;-91
2021/10/18 08:28:37;;;;;;;8.27;7.67;;;12.90;95.00;;;;;;4896002;29;20216;-90
2021/10/18 08:31:03;;;;;;;7.73;6.77;;;16.30;96.60;;;;;;4895261;29;20795;-91
2021/10/18 08:33:29;;;;;;;7.40;6.97;;;16.40;94.10;;;;;;4899105;29;20172;-90
2021/10/18 08:35:56;;;;;;;7.70;7.20;;;16.50;91.50;;;;;;4895413;29;20444;-90
2021/10/18 08:38:46;;;;;;;8.63;7.50;;;16.60;89.20;;;;;;4895593;29;20487;-90
2021/10/18 08:41:25;;;;;;;7.97;7.37;;;17.80;92.40;;;;;;4899364;29;20413;-91
2021/10/18 08:44:17;;;;;;;6.97;6.47;;;17.20;92.30;;;;;;4878072;29;20441;-91
2021/10/18 08:46:52;;;;;;;7.83;7.33;;;17.70;88.20;;;;;;4887147;29;20512;-91
2021/10/18 08:49:20;;;;;;;8.20;7.40;;;17.70;84.20;;;;;;4882994;29;20932;-90
2021/10/18 08:51:46;;;;;;;8.10;7.40;;;17.60;87.60;;;;;;4900780;29;20421;-90
2021/10/18 08:54:11;;;;;;;8.97;8.37;;;18.20;86.10;;;;;;4882104;29;20433;-91
2021/10/18 08:56:37;;;;;;;8.90;7.43;;;17.90;92.20;;;;;;4548680;29;10000687;-91
2021/10/18 08:59:05;;;;;;;8.50;7.70;;;17.90;91.60;;;;;;4899917;29;20614;-91
2021/10/18 09:01:48;;;;;;;8.17;7.67;;;17.90;79.70;;;;;;4899859;29;20429;-90
2021/10/18 09:04:25;;;;;;;7.00;6.57;;;18.60;85.80;;;;;;4900542;29;20453;-88
2021/10/18 09:06:51;;;;;;;8.27;7.67;;;18.50;83.70;;;;;;4903023;29;20413;-92
2021/10/18 09:09:22;;;;;;;7.20;6.80;;;18.50;77.10;;;;;;4901763;29;20437;-90
2021/10/18 09:11:48;;;;;;;8.60;7.83;;;;;;;;;;4884251;29;20493;-91
2021/10/18 09:14:17;;;;;;;9.30;8.60;;;19.20;58.10;;;;;;4899687;29;20417;-92
2021/10/18 09:16:45;;;;;;;7.83;7.30;;;19.70;57.00;;;;;;4899743;29;20425;-92
2021/10/18 09:19:12;;;;;;;8.03;7.50;;;20.20;56.30;;;;;;4882614;29;20949;-90
2021/10/18 09:21:42;;;;;;;7.50;7.10;;;20.30;54.30;;;;;;4897769;29;20516;-92
2021/10/18 09:24:11;;;;;;;8.30;7.80;;;20.50;54.10;;;;;;4886164;29;20433;-91
2021/10/18 09:26:39;;;;;;;9.40;8.30;;;20.40;53.40;;;;;;4887894;29;20424;-91
2021/10/18 09:29:13;;;;;;;9.33;8.53;;;19.70;53.20;;;;;;4903970;29;20485;-90
2021/10/18 09:31:40;;;;;;;8.87;8.20;;;21.10;54.90;;;;;;4884888;29;20413;-93
2021/10/18 09:34:12;;;;;;;9.57;8.80;;;21.50;56.20;;;;;;4904937;29;20508;-93
2021/10/18 09:36:39;;;;;;;9.50;8.70;;;17.50;53.80;;;;;;4889742;29;20775;-91
2021/10/18 09:39:15;;;;;;;9.00;8.20;;;19.50;56.10;;;;;;4903489;29;20473;-91
2021/10/18 09:41:58;;;;;;;8.33;7.53;;;19.60;55.10;;;;;;4905139;29;21011;-91
2021/10/18 09:44:50;;;;;;;8.13;7.53;;;19.60;54.60;;;;;;4551944;29;10000066;-93
2021/10/18 10:51:32;;;;;;;8.10;7.60;;;21.00;49.00;;;;;;4907569;29;20983;-92
2021/10/18 10:54:03;;;;;;;11.80;8.10;;;21.00;49.10;;;;;;4903629;29;20937;-91
2021/10/18 10:56:49;;;;;;;8.30;7.80;;;21.30;49.30;;;;;;4902303;29;21008;-89
2021/10/18 10:59:24;;;;;;;7.70;7.20;;;20.30;48.80;;;;;;4902330;29;20968;-92
2021/10/18 11:02:06;;;;;;;8.27;7.77;;;22.90;50.30;;;;;;4903148;29;20452;-91
2021/10/18 11:04:46;;;;;;;8.97;8.30;;;22.70;50.70;;;;;;4903926;29;20453;-89
2021/10/18 11:07:12;;;;;;;10.80;9.90;;;20.40;50.20;;;;;;4904105;29;20417;-91
2021/10/18 11:09:41;;;;;;;9.80;8.67;;;22.00;51.80;;;;;;4902882;29;20409;-92
2021/10/18 11:12:22;;;;;;;8.20;7.60;;;19.90;50.90;;;;;;4904612;29;20224;-91
2021/10/18 11:15:08;;;;;;;8.57;7.90;;;20.00;50.50;;;;;;4905543;29;20416;-92
2021/10/18 11:17:41;;;;;;;9.10;8.40;;;20.30;50.60;;;;;;4905284;29;20825;-90
2021/10/18 11:20:12;;;;;;;7.80;7.10;;;20.70;50.60;;;;;;4903779;29;20489;-90
2021/10/18 11:22:43;;;;;;;10.43;7.10;;;21.40;49.70;;;;;;4902561;29;20488;-91
2021/10/18 11:25:27;;;;;;;8.00;7.50;;;23.20;49.90;;;;;;4890104;29;20429;-91
2021/10/18 11:27:56;;;;;;;7.97;7.40;;;25.40;50.30;;;;;;4888483;29;20637;-90
2021/10/18 11:30:24;;;;;;;7.90;7.30;;;22.70;49.10;;;;;;4869959;29;20946;-89
2021/10/18 11:32:54;;;;;;;8.30;7.60;;;25.60;49.60;;;;;;4885779;29;20422;-91
2021/10/18 11:35:20;;;;;;;8.30;7.60;;;22.80;50.60;;;;;;4887380;29;20495;-90
2021/10/18 11:37:54;;;;;;;8.97;8.37;;;21.40;49.00;;;;;;4887913;29;20522;-91
2021/10/18 11:40:24;;;;;;;8.93;8.13;;;20.90;49.10;;;;;;4888497;29;20497;-92
2021/10/18 11:43:00;;;;;;;8.77;7.97;;;21.90;53.20;;;;;;4891796;29;20414;-92
2021/10/18 11:45:34;;;;;;;7.50;7.00;;;20.50;52.40;;;;;;4892478;29;20433;-89
2021/10/18 11:48:36;;;;;;;8.47;7.87;;;19.70;53.10;;;;;;4892712;29;20902;-93
2021/10/18 11:51:03;;;;;;;7.47;6.87;;;22.30;54.40;;;;;;4891297;29;20454;-92
2021/10/18 11:53:40;;;;;;;10.40;9.40;;;21.10;54.30;;;;;;4890391;29;20483;-91
2021/10/18 11:56:17;;;;;;;7.57;7.03;;;21.60;49.60;;;;;;4891666;29;20462;-90
2021/10/18 11:58:45;;;;;;;7.40;6.83;;;22.90;49.30;;;;;;4896498;29;20469;-90
2021/10/18 12:01:18;;;;;;;7.90;7.37;;;23.10;52.00;;;;;;4899594;29;20441;-92
2021/10/18 12:03:44;;;;;;;7.57;7.17;;;;;;;;;;4899830;29;20441;-92
2021/10/18 12:06:13;;;;;;;7.40;7.00;;;23.20;45.40;;;;;;4900579;29;20414;-92
2021/10/18 12:08:43;;;;;;;7.13;6.63;;;25.30;49.10;;;;;;4890056;29;20665;-90
2021/10/18 12:11:15;;;;;;;6.30;6.07;;;24.10;47.90;;;;;;4891054;29;20406;-93
2021/10/18 12:13:47;;;;;;;6.53;6.33;;;23.60;47.40;;;;;;4893856;29;20442;-93
2021/10/18 12:16:28;;;;;;;6.80;6.40;;;24.90;47.00;;;;;;4849625;29;20430;-93
2021/10/18 12:19:06;;;;;;;8.63;7.77;;;24.30;46.00;;;;;;4879384;29;20469;-92
2021/10/18 12:21:44;;;;;;;6.93;6.30;;;23.80;46.10;;;;;;4892936;29;20418;-91
2021/10/18 12:25:00;;;;;;;7.17;6.67;;;23.80;45.40;;;;;;4896242;29;20458;-89
2021/10/18 12:27:32;;;;;;;7.30;6.83;;;25.10;46.40;;;;;;4885356;29;20430;-92
2021/10/18 12:30:00;;;;;;;7.57;7.17;;;23.70;44.90;;;;;;4896847;29;20482;-91
2021/10/18 12:32:43;;;;;;;6.50;6.20;;;25.00;47.60;;;;;;4892898;29;20671;-88
2021/10/18 12:35:09;;;;;;;7.70;7.00;;;25.40;48.10;;;;;;4885458;29;20457;-88
2021/10/18 12:37:35;;;;;;;6.80;6.43;;;24.70;49.00;;;;;;4885958;29;20189;-89
2021/10/18 12:40:03;;;;;;;6.43;5.93;;;22.10;48.40;;;;;;4885983;29;20209;-89
2021/10/18 12:42:29;;;;;;;7.67;6.97;;;24.00;47.30;;;;;;4887673;29;20185;-90
2021/10/18 12:45:14;;;;;;;8.17;6.43;;;23.50;45.40;;;;;;4887175;29;20422;-89
2021/10/18 12:47:46;;;;;;;6.87;6.47;;;23.60;44.30;;;;;;4880865;29;20426;-89
2021/10/18 12:50:20;;;;;;;6.53;6.13;;;23.60;44.30;;;;;;4881637;29;20501;-89
2021/10/18 12:53:00;;;;;;;6.00;5.60;;;23.10;44.50;;;;;;4883632;29;20417;-88
2021/10/18 12:55:33;;;;;;;6.83;6.33;;;23.00;45.50;;;;;;4868052;29;20513;-88
2021/10/18 12:58:04;;;;;;;7.50;6.83;;;22.30;45.20;;;;;;4867534;29;20938;-88
2021/10/18 13:00:39;;;;;;;7.53;6.83;;;21.70;47.10;;;;;;4884497;29;20432;-89
2021/10/18 13:03:07;;;;;;;5.50;5.10;;;23.10;48.70;;;;;;4884162;29;20405;-90
2021/10/18 13:05:45;;;;;;;6.20;5.70;;;23.10;49.30;;;;;;4883589;29;20433;-85
2021/10/18 13:08:16;;;;;;;7.60;7.07;;;20.70;47.70;;;;;;4884183;29;20489;-88
2021/10/18 13:10:46;;;;;;;6.30;5.83;;;21.90;50.00;;;;;;4883349;29;20414;-90
2021/10/18 13:13:15;;;;;;;7.50;6.90;;;20.20;49.60;;;;;;4883922;29;20406;-89
2021/10/18 13:15:42;;;;;;;7.70;6.90;;;22.10;51.60;;;;;;4882848;29;20421;-88
2021/10/18 13:18:09;;;;;;;7.53;6.87;;;19.60;50.20;;;;;;4884836;29;20842;-89
2021/10/18 13:20:35;;;;;;;7.10;6.67;;;19.50;50.70;;;;;;4867143;29;20505;-88
2021/10/18 13:23:02;;;;;;;6.80;6.40;;;20.30;51.50;;;;;;4885908;29;20420;-90
2021/10/18 13:25:30;;;;;;;8.20;6.70;;;19.50;51.00;;;;;;4890765;29;20569;-88
2021/10/18 13:27:57;;;;;;;6.63;6.07;;;19.50;50.40;;;;;;4890651;29;20461;-86
2021/10/18 13:30:25;;;;;;;7.67;6.97;;;19.30;51.10;;;;;;4890935;29;20421;-88
2021/10/18 13:32:53;;;;;;;7.60;7.10;;;19.30;50.90;;;;;;4889791;29;20426;-87
2021/10/18 13:35:19;;;;;;;6.90;6.40;;;19.60;51.60;;;;;;4889834;29;20430;-89
2021/10/18 13:37:45;;;;;;;7.47;6.90;;;20.20;52.90;;;;;;4886569;29;20429;-88
2021/10/18 13:40:12;;;;;;;7.20;6.60;;;20.60;53.00;;;;;;4887891;29;20442;-86
2021/10/18 13:42:39;;;;;;;7.20;6.70;;;21.00;53.90;;;;;;4886368;29;20166;-88
2021/10/18 13:45:06;;;;;;;8.67;7.93;;;21.20;54.50;;;;;;4887101;29;20436;-87
2021/10/18 13:47:31;;;;;;;7.63;7.13;;;18.90;53.40;;;;;;4888450;29;20523;-89
2021/10/18 13:49:57;;;;;;;8.87;8.27;;;;;;;;;;4884183;29;20469;-89
2021/10/18 13:52:23;;;;;;;8.30;7.70;;;18.90;53.50;;;;;;4885486;29;20185;-90
2021/10/18 13:54:52;;;;;;;8.67;7.93;;;17.70;53.80;;;;;;4888906;29;20459;-88
2021/10/18 13:57:18;;;;;;;7.77;7.27;;;20.00;55.30;;;;;;4869576;29;20461;-89
2021/10/18 13:59:45;;;;;;;7.73;7.07;;;20.30;55.70;;;;;;4886430;29;20479;-90
2021/10/18 14:02:14;;;;;;;8.43;7.93;;;18.70;54.50;;;;;;4886095;29;20429;-88
2021/10/18 14:04:40;;;;;;;8.53;7.83;;;18.70;54.40;;;;;;4887236;29;20444;-89
2021/10/18 14:07:05;;;;;;;11.87;8.07;;;17.40;54.30;;;;;;4885366;29;20421;-88